Time;durP1;ratioP1;P1;durP2;ratioP2;P2;SDS_P1;SDS_P2;PMS_P1;PMS_P2;Temp;Humidity;BMP_temperature;BMP_pressure;BME280_temperature;BME280_humidity;BME280_pressure;Samples;Min_cycle;Max_cycle;Signal;HPM_P1;HPM_P2
2023/05/23 00:00:54;;;;;;;;;;;13.00;99.90;;;;;;6129376;23;19944;-77
2023/05/23 00:03:23;;;;;;;;;;;13.00;99.90;;;;;;6126255;23;20253;-76
2023/05/23 00:05:50;;;;;;;;;;;12.90;99.90;;;;;;6100207;23;19929;-76
2023/05/23 00:08:16;;;;;;;;;;;13.00;99.90;;;;;;6131910;23;19921;-77
2023/05/23 00:10:42;;;;;;;;;;;12.90;99.90;;;;;;6106646;23;19925;-77
2023/05/23 00:13:13;;;;;;;;;;;13.00;99.90;;;;;;6105112;23;20265;-77
2023/05/23 00:15:42;;;;;;;;;;;13.00;99.90;;;;;;6131848;23;19921;-76
2023/05/23 00:18:07;;;;;;;;;;;13.00;99.90;;;;;;6106777;23;20067;-77
2023/05/23 00:20:42;;;;;;;;;;;13.50;99.90;;;;;;6131893;23;19944;-78
2023/05/23 00:23:09;;;;;;;;;;;14.40;99.90;;;;;;6099070;23;19924;-78
2023/05/23 00:25:39;;;;;;;;;;;12.90;99.90;;;;;;6123631;23;20360;-78
2023/05/23 00:28:05;;;;;;;;;;;14.30;99.90;;;;;;6124729;23;19921;-79
2023/05/23 00:30:40;;;;;;;;;;;12.90;99.90;;;;;;6098371;23;19921;-78
2023/05/23 00:33:13;;;;;;;;;;;12.90;99.90;;;;;;6123630;23;20264;-78
2023/05/23 00:35:40;;;;;;;;;;;14.00;99.90;;;;;;6125636;23;19972;-77
2023/05/23 00:38:06;;;;;;;;;;;12.90;99.90;;;;;;6100611;23;19921;-77
2023/05/23 00:40:32;;;;;;;;;;;12.90;99.90;;;;;;6099198;23;19921;-78
2023/05/23 00:42:59;;;;;;;;;;;13.00;99.90;;;;;;6098244;23;19928;-78
2023/05/23 00:45:25;;;;;;;;;;;12.90;99.90;;;;;;6124818;23;19921;-79
2023/05/23 00:47:51;;;;;;;;;;;12.80;99.90;;;;;;6097886;23;20000;-77
2023/05/23 00:50:17;;;;;;;;;;;12.80;99.90;;;;;;6124742;23;20282;-77
2023/05/23 00:52:46;;;;;;;;;;;14.20;99.90;;;;;;6098990;23;19971;-78
2023/05/23 00:55:13;;;;;;;;;;;12.80;99.90;;;;;;6123358;23;19967;-78
2023/05/23 00:57:39;;;;;;;;;;;12.90;99.90;;;;;;6124358;23;19925;-78
2023/05/23 01:00:11;;;;;;;;;;;12.80;99.90;;;;;;6124766;23;20293;-77
2023/05/23 01:02:40;;;;;;;;;;;12.70;99.90;;;;;;6123433;23;19932;-77
2023/05/23 01:05:06;;;;;;;;;;;12.70;99.90;;;;;;6124230;23;19928;-78
2023/05/23 01:07:31;;;;;;;;;;;12.70;99.90;;;;;;6097674;23;19921;-78
2023/05/23 01:09:57;;;;;;;;;;;12.80;99.90;;;;;;6124287;23;19972;-78
2023/05/23 01:12:23;;;;;;;;;;;12.80;99.90;;;;;;6124433;23;19939;-79
2023/05/23 01:15:08;;;;;;;;;;;12.80;99.90;;;;;;6123279;23;19925;-79
2023/05/23 01:17:40;;;;;;;;;;;12.80;99.90;;;;;;6098612;23;19949;-79
2023/05/23 01:20:11;;;;;;;;;;;12.80;99.90;;;;;;6123640;23;19999;-79
2023/05/23 01:22:55;;;;;;;;;;;12.80;99.90;;;;;;6123295;23;20250;-79
2023/05/23 01:25:26;;;;;;;;;;;12.70;99.90;;;;;;6124640;23;20321;-79
2023/05/23 01:27:54;;;;;;;;;;;12.70;99.90;;;;;;6124357;23;19925;-79
2023/05/23 01:30:25;;;;;;;;;;;12.70;99.90;;;;;;6097688;23;19999;-78
2023/05/23 01:32:52;;;;;;;;;;;12.70;99.90;;;;;;6122858;23;20242;-79
2023/05/23 01:35:21;;;;;;;;;;;12.70;99.90;;;;;;6098404;23;19996;-78
2023/05/23 01:37:46;;;;;;;;;;;12.70;99.90;;;;;;6123114;23;19996;-78
2023/05/23 01:40:12;;;;;;;;;;;12.70;99.90;;;;;;6124244;23;19960;-79
2023/05/23 01:42:41;;;;;;;;;;;12.70;99.90;;;;;;6122813;23;19948;-78
2023/05/23 01:45:07;;;;;;;;;;;12.80;99.90;;;;;;6123870;23;20291;-79
2023/05/23 01:47:32;;;;;;;;;;;12.70;99.90;;;;;;6098223;23;19920;-79
2023/05/23 01:49:58;;;;;;;;;;;12.70;99.90;;;;;;6123184;23;20338;-79
2023/05/23 01:52:24;;;;;;;;;;;12.70;99.90;;;;;;6124703;23;19921;-79
2023/05/23 01:54:50;;;;;;;;;;;12.60;99.90;;;;;;6123486;23;19925;-79
2023/05/23 01:57:16;;;;;;;;;;;12.60;99.90;;;;;;6124879;23;19928;-79
2023/05/23 01:59:42;;;;;;;;;;;12.60;99.90;;;;;;6099819;23;20330;-79
2023/05/23 02:02:07;;;;;;;;;;;12.60;99.90;;;;;;6125545;23;19977;-78
2023/05/23 02:04:33;;;;;;;;;;;12.60;99.90;;;;;;6125207;23;19956;-78
2023/05/23 02:06:59;;;;;;;;;;;12.90;99.90;;;;;;6125544;23;20314;-78
2023/05/23 02:09:27;;;;;;;;;;;12.40;99.90;;;;;;6126470;23;19921;-79
2023/05/23 02:11:56;;;;;;;;;;;12.40;99.90;;;;;;6124431;23;19928;-78
2023/05/23 02:14:22;;;;;;;;;;;12.90;99.90;;;;;;6125833;23;19980;-79
2023/05/23 02:16:48;;;;;;;;;;;12.40;99.90;;;;;;6125572;23;19925;-78
2023/05/23 02:19:16;;;;;;;;;;;12.30;99.90;;;;;;6124546;23;20332;-77
2023/05/23 02:21:41;;;;;;;;;;;12.30;99.90;;;;;;6100420;23;19963;-78
2023/05/23 02:24:07;;;;;;;;;;;12.30;99.90;;;;;;6099236;23;19975;-77
2023/05/23 02:26:33;;;;;;;;;;;12.20;99.90;;;;;;6125316;23;19964;-78
2023/05/23 02:28:58;;;;;;;;;;;12.20;99.90;;;;;;6125419;23;19920;-78
2023/05/23 02:31:24;;;;;;;;;;;12.30;99.90;;;;;;6126407;23;19926;-78
2023/05/23 02:33:49;;;;;;;;;;;12.30;99.90;;;;;;6124154;23;19916;-78
2023/05/23 02:36:15;;;;;;;;;;;12.40;99.90;;;;;;6099778;23;19921;-78
2023/05/23 02:38:56;;;;;;;;;;;12.30;99.90;;;;;;6124927;23;20000;-77
2023/05/23 02:41:25;;;;;;;;;;;13.30;99.90;;;;;;6124965;23;19925;-78
2023/05/23 02:43:51;;;;;;;;;;;12.40;99.90;;;;;;6124785;23;19932;-78
2023/05/23 02:46:16;;;;;;;;;;;12.30;99.90;;;;;;6098921;23;19921;-77
2023/05/23 02:48:42;;;;;;;;;;;12.40;99.90;;;;;;6126053;23;19921;-78
2023/05/23 02:51:07;;;;;;;;;;;12.40;99.90;;;;;;6125804;23;19925;-77
2023/05/23 02:53:33;;;;;;;;;;;12.30;99.90;;;;;;6124655;23;19929;-77
2023/05/23 02:55:59;;;;;;;;;;;12.30;99.90;;;;;;6125642;23;19981;-77
2023/05/23 02:58:24;;;;;;;;;;;12.30;99.90;;;;;;6125796;23;19925;-77
2023/05/23 03:00:50;;;;;;;;;;;12.30;99.90;;;;;;6125668;23;20222;-79
2023/05/23 03:03:16;;;;;;;;;;;12.30;99.90;;;;;;6128736;23;19955;-79
2023/05/23 03:05:41;;;;;;;;;;;12.30;99.90;;;;;;6102947;23;19979;-78
2023/05/23 03:08:07;;;;;;;;;;;12.30;99.90;;;;;;6100605;23;20342;-79
2023/05/23 03:10:35;;;;;;;;;;;12.30;99.90;;;;;;6097029;23;20385;-79
2023/05/23 03:13:01;;;;;;;;;;;12.20;99.90;;;;;;6125212;23;19952;-78
2023/05/23 03:15:26;;;;;;;;;;;12.20;99.90;;;;;;6124485;23;20000;-78
2023/05/23 03:17:52;;;;;;;;;;;12.20;99.90;;;;;;6125236;23;20249;-78
2023/05/23 03:20:18;;;;;;;;;;;12.20;99.90;;;;;;6124968;23;20287;-77
2023/05/23 03:22:44;;;;;;;;;;;12.10;99.90;;;;;;6124374;23;20261;-81
2023/05/23 03:25:09;;;;;;;;;;;12.50;99.90;;;;;;6124966;23;19979;-80
2023/05/23 03:27:44;;;;;;;;;;;12.10;99.90;;;;;;6125554;23;20344;-79
2023/05/23 03:30:13;;;;;;;;;;;12.10;99.90;;;;;;6124418;23;19932;-80
2023/05/23 03:32:38;;;;;;;;;;;13.20;99.90;;;;;;6124761;23;19928;-79
2023/05/23 03:35:04;;;;;;;;;;;12.00;99.90;;;;;;6097786;23;19921;-78
2023/05/23 03:37:32;;;;;;;;;;;12.00;99.90;;;;;;6098434;23;20003;-78
2023/05/23 03:39:57;;;;;;;;;;;12.10;99.90;;;;;;6124188;23;19921;-77
2023/05/23 03:42:23;;;;;;;;;;;11.90;99.90;;;;;;6098674;23;19960;-77
2023/05/23 03:44:48;;;;;;;;;;;11.90;99.90;;;;;;6124282;23;19921;-76
2023/05/23 03:47:14;;;;;;;;;;;11.80;99.90;;;;;;6124782;23;19943;-77
2023/05/23 03:49:40;;;;;;;;;;;11.90;99.90;;;;;;6097880;23;20316;-78
2023/05/23 03:52:05;;;;;;;;;;;11.80;99.90;;;;;;6124110;23;19924;-77
2023/05/23 03:54:31;;;;;;;;;;;11.80;99.90;;;;;;6125163;23;20638;-76
2023/05/23 03:57:00;;;;;;;;;;;11.90;99.90;;;;;;6098044;23;19983;-77
2023/05/23 03:59:25;;;;;;;;;;;11.80;99.90;;;;;;6099010;23;19967;-77
2023/05/23 04:01:51;;;;;;;;;;;11.70;99.90;;;;;;6124497;23;20000;-78
2023/05/23 04:04:17;;;;;;;;;;;12.30;99.90;;;;;;6123859;23;19926;-76
2023/05/23 04:06:43;;;;;;;;;;;11.70;99.90;;;;;;6098229;23;20000;-77
2023/05/23 04:09:09;;;;;;;;;;;11.60;99.90;;;;;;6098179;23;19921;-78
2023/05/23 04:11:34;;;;;;;;;;;11.60;99.90;;;;;;6124120;23;19940;-80
2023/05/23 04:14:00;;;;;;;;;;;11.90;99.90;;;;;;6124850;23;19975;-78
2023/05/23 04:16:26;;;;;;;;;;;11.60;99.90;;;;;;6124737;23;19921;-79
2023/05/23 04:18:53;;;;;;;;;;;11.50;99.90;;;;;;6123694;23;19917;-79
2023/05/23 04:21:18;;;;;;;;;;;11.40;99.90;;;;;;6098373;23;19952;-77
2023/05/23 04:23:44;;;;;;;;;;;11.40;99.90;;;;;;6124892;23;20352;-78
2023/05/23 04:26:13;;;;;;;;;;;11.40;99.90;;;;;;6097710;23;20004;-78
2023/05/23 04:28:38;;;;;;;;;;;11.40;99.90;;;;;;6098997;23;20003;-79
2023/05/23 04:31:04;;;;;;;;;;;11.40;99.90;;;;;;6098342;23;20326;-79
2023/05/23 04:33:29;;;;;;;;;;;11.30;99.90;;;;;;6098068;23;20014;-78
2023/05/23 04:35:56;;;;;;;;;;;11.30;99.90;;;;;;6097118;23;19921;-77
2023/05/23 04:38:24;;;;;;;;;;;11.30;99.90;;;;;;6097996;23;20250;-79
2023/05/23 04:40:51;;;;;;;;;;;11.30;99.90;;;;;;6098239;23;20242;-79
2023/05/23 04:43:18;;;;;;;;;;;12.30;99.90;;;;;;6124625;23;19955;-78
2023/05/23 04:45:44;;;;;;;;;;;11.20;99.90;;;;;;6097525;23;19975;-77
2023/05/23 04:48:11;;;;;;;;;;;11.10;99.90;;;;;;6124168;23;19944;-78
2023/05/23 04:50:39;;;;;;;;;;;11.20;99.90;;;;;;6124389;23;19941;-76
2023/05/23 04:53:05;;;;;;;;;;;11.20;99.90;;;;;;6097294;23;19921;-86
2023/05/23 04:55:33;;;;;;;;;;;11.20;99.90;;;;;;6098681;23;19927;-87
2023/05/23 04:57:59;;;;;;;;;;;11.20;99.90;;;;;;6123120;23;19920;-79
2023/05/23 05:00:25;;;;;;;;;;;11.20;99.90;;;;;;6123280;23;19927;-77
2023/05/23 05:02:57;;;;;;;;;;;11.20;99.90;;;;;;6121756;23;19917;-78
2023/05/23 05:05:28;;;;;;;;;;;10.70;99.90;;;;;;6096967;23;19956;-77
2023/05/23 05:11:35;;;;;;;;;;;9.40;99.90;;;;;;6120218;23;19916;-76
2023/05/23 05:14:26;;;;;;;;;;;11.70;99.90;;;;;;6094033;23;20326;-77
2023/05/23 05:17:25;;;;;;;;;;;11.20;99.90;;;;;;6121180;23;19921;-76
2023/05/23 05:19:54;;;;;;;;;;;11.20;99.90;;;;;;6120460;23;19921;-76
2023/05/23 05:22:26;;;;;;;;;;;11.20;99.90;;;;;;6122550;23;19986;-77
2023/05/23 05:24:51;;;;;;;;;;;11.20;99.90;;;;;;6118158;23;20322;-81
2023/05/23 05:27:17;;;;;;;;;;;11.10;99.90;;;;;;6123314;23;19997;-84
2023/05/23 05:29:52;;;;;;;;;;;11.20;99.90;;;;;;6096325;23;20338;-77
2023/05/23 05:32:18;;;;;;;;;;;11.10;99.90;;;;;;6123204;23;19920;-80
2023/05/23 05:34:43;;;;;;;;;;;11.20;99.90;;;;;;6096487;23;19971;-78
2023/05/23 05:37:13;;;;;;;;;;;11.20;99.90;;;;;;6098469;23;20000;-80
2023/05/23 05:39:38;;;;;;;;;;;11.30;99.90;;;;;;6123824;23;19921;-76
2023/05/23 05:42:04;;;;;;;;;;;11.40;99.90;;;;;;6122427;23;20357;-79
2023/05/23 05:44:30;;;;;;;;;;;11.50;99.90;;;;;;6098285;23;19956;-74
2023/05/23 05:46:55;;;;;;;;;;;11.60;99.90;;;;;;6096708;23;20366;-83
2023/05/23 05:49:21;;;;;;;;;;;11.70;99.90;;;;;;6097622;23;19953;-88
2023/05/23 05:51:47;;;;;;;;;;;11.70;99.90;;;;;;6123932;23;20347;-77
2023/05/23 05:54:12;;;;;;;;;;;11.70;99.90;;;;;;6097505;23;19972;-77
2023/05/23 05:56:38;;;;;;;;;;;11.70;99.90;;;;;;6097500;23;19921;-77
2023/05/23 05:59:06;;;;;;;;;;;11.70;99.90;;;;;;6122679;23;19984;-77
2023/05/23 06:01:33;;;;;;;;;;;12.40;99.90;;;;;;6121708;23;19932;-77
2023/05/23 06:03:59;;;;;;;;;;;11.80;99.90;;;;;;6120304;23;19928;-78
2023/05/23 06:06:25;;;;;;;;;;;11.90;99.90;;;;;;6121861;23;20271;-76
2023/05/23 06:08:50;;;;;;;;;;;12.00;99.90;;;;;;6121772;23;20071;-77
2023/05/23 06:11:16;;;;;;;;;;;12.10;99.90;;;;;;6120870;23;19921;-78
2023/05/23 06:13:41;;;;;;;;;;;12.00;99.90;;;;;;6096286;23;20258;-77
2023/05/23 06:16:07;;;;;;;;;;;12.00;99.90;;;;;;6097672;23;19924;-77
2023/05/23 06:18:33;;;;;;;;;;;12.10;99.90;;;;;;6123248;23;19943;-77
2023/05/23 06:20:58;;;;;;;;;;;12.00;99.90;;;;;;6097908;23;19925;-77
2023/05/23 06:23:24;;;;;;;;;;;12.20;99.90;;;;;;6123828;23;20246;-80
2023/05/23 06:25:50;;;;;;;;;;;12.40;99.90;;;;;;6122825;23;19929;-85
2023/05/23 06:28:15;;;;;;;;;;;12.70;99.90;;;;;;6123926;23;19995;-79
2023/05/23 06:30:41;;;;;;;;;;;12.40;99.90;;;;;;6124037;23;20426;-84
2023/05/23 06:39:46;;;;;;;;;;;12.60;99.90;;;;;;6065258;23;19920;-80
2023/05/23 06:45:53;;;;;;;;;;;12.40;99.90;;;;;;6117928;23;19976;-82
2023/05/23 06:48:27;;;;;;;;;;;12.20;99.90;;;;;;6070037;23;20360;-82
2023/05/23 06:50:56;;;;;;;;;;;13.30;99.90;;;;;;6067748;23;19921;-82
2023/05/23 06:56:48;;;;;;;;;;;12.00;99.90;;;;;;6030727;23;20291;-82
2023/05/23 06:59:13;;;;;;;;;;;12.50;99.90;;;;;;6060525;23;19925;-82
2023/05/23 07:01:39;;;;;;;;;;;12.40;99.90;;;;;;6155032;23;19956;-82
2023/05/23 07:04:04;;;;;;;;;;;12.60;99.90;;;;;;6124985;23;19924;-81
2023/05/23 07:06:31;;;;;;;;;;;12.40;99.90;;;;;;6151651;23;19920;-81
2023/05/23 07:08:57;;;;;;;;;;;12.50;99.90;;;;;;6126465;23;19944;-81
2023/05/23 07:11:23;;;;;;;;;;;12.80;99.90;;;;;;6125118;23;19920;-82
2023/05/23 07:13:48;;;;;;;;;;;13.00;99.90;;;;;;6123303;23;19971;-81
2023/05/23 07:16:14;;;;;;;;;;;13.00;99.90;;;;;;6124602;23;19924;-82
2023/05/23 07:18:39;;;;;;;;;;;13.50;99.90;;;;;;6151708;23;20003;-79
2023/05/23 07:21:05;;;;;;;;;;;13.40;99.90;;;;;;6151504;23;19966;-81
2023/05/23 07:23:34;;;;;;;;;;;13.70;99.90;;;;;;6126150;23;19921;-78
2023/05/23 07:26:00;;;;;;;;;;;13.80;99.90;;;;;;6127497;23;19920;-81
2023/05/23 07:28:25;;;;;;;;;;;13.70;99.90;;;;;;6127496;23;19928;-81
2023/05/23 07:30:51;;;;;;;;;;;13.50;99.90;;;;;;6128227;23;19921;-79
2023/05/23 07:33:16;;;;;;;;;;;13.40;99.90;;;;;;6128049;23;19932;-81
2023/05/23 07:35:45;;;;;;;;;;;13.60;99.90;;;;;;6153887;23;19920;-81
2023/05/23 07:38:10;;;;;;;;;;;13.80;99.90;;;;;;6128182;23;19921;-79
2023/05/23 07:40:39;;;;;;;;;;;13.80;99.90;;;;;;6127948;23;19925;-80
2023/05/23 07:43:04;;;;;;;;;;;13.90;99.90;;;;;;6124906;23;19921;-81
2023/05/23 07:45:30;;;;;;;;;;;14.00;99.90;;;;;;6153154;23;19928;-81
2023/05/23 07:47:56;;;;;;;;;;;14.00;99.90;;;;;;6152709;23;20234;-80
2023/05/23 07:50:26;;;;;;;;;;;13.90;99.90;;;;;;6126382;23;19928;-80
2023/05/23 07:52:52;;;;;;;;;;;14.50;99.90;;;;;;6126829;23;19921;-79
2023/05/23 07:55:17;;;;;;;;;;;14.90;99.90;;;;;;6125955;23;20360;-83
2023/05/23 07:57:43;;;;;;;;;;;15.30;99.90;;;;;;6153424;23;19936;-83
2023/05/23 08:00:13;;;;;;;;;;;15.10;99.90;;;;;;6152747;23;19927;-82
2023/05/23 08:02:39;;;;;;;;;;;14.90;99.90;;;;;;6152324;23;19952;-82
2023/05/23 08:05:05;;;;;;;;;;;15.10;99.90;;;;;;6153355;23;19928;-82
2023/05/23 08:07:31;;;;;;;;;;;15.90;99.90;;;;;;6153853;23;19921;-83
2023/05/23 08:09:56;;;;;;;;;;;16.30;99.90;;;;;;6152731;23;20260;-83
2023/05/23 08:12:22;;;;;;;;;;;16.30;99.90;;;;;;6127710;23;20337;-82
2023/05/23 08:14:47;;;;;;;;;;;16.20;99.90;;;;;;6153657;23;19928;-83
2023/05/23 08:17:16;;;;;;;;;;;16.40;99.90;;;;;;6153496;23;19928;-80
2023/05/23 08:19:43;;;;;;;;;;;16.70;99.90;;;;;;6127282;23;21540;-83
2023/05/23 08:22:09;;;;;;;;;;;16.70;99.90;;;;;;6153293;23;19971;-82
2023/05/23 08:24:34;;;;;;;;;;;16.30;99.90;;;;;;6155608;23;19949;-82
2023/05/23 08:27:00;;;;;;;;;;;16.30;99.90;;;;;;6155575;23;19921;-82
2023/05/23 08:29:26;;;;;;;;;;;16.10;99.90;;;;;;6155356;23;19924;-82
2023/05/23 08:31:52;;;;;;;;;;;15.90;99.90;;;;;;6155461;23;20326;-80
2023/05/23 08:34:17;;;;;;;;;;;16.10;99.90;;;;;;6131278;23;19959;-81
2023/05/23 08:36:43;;;;;;;;;;;16.10;99.90;;;;;;6155678;23;19927;-80
2023/05/23 08:39:09;;;;;;;;;;;16.30;99.90;;;;;;6153991;23;19928;-82
2023/05/23 08:41:34;;;;;;;;;;;16.50;99.90;;;;;;6058065;23;1934189;-81
2023/05/23 08:44:00;;;;;;;;;;;16.40;99.90;;;;;;6127272;23;19920;-81
2023/05/23 08:46:26;;;;;;;;;;;16.40;99.90;;;;;;6126311;23;19925;-79
2023/05/23 08:48:53;;;;;;;;;;;16.00;99.90;;;;;;6099018;23;19927;-81
2023/05/23 08:51:23;;;;;;;;;;;15.60;99.90;;;;;;6101353;23;19925;-82
2023/05/23 08:53:50;;;;;;;;;;;15.20;99.90;;;;;;6122895;23;19948;-81
2023/05/23 08:56:15;;;;;;;;;;;15.10;99.90;;;;;;6123818;23;19925;-80
2023/05/23 08:58:41;;;;;;;;;;;15.00;99.90;;;;;;6097712;23;20390;-81
2023/05/23 09:01:13;;;;;;;;;;;14.80;99.90;;;;;;6122907;23;19976;-78
2023/05/23 09:03:42;;;;;;;;;;;14.60;99.90;;;;;;6098477;23;19920;-74
2023/05/23 09:06:27;;;;;;;;;;;14.40;99.90;;;;;;6121328;23;21003;-77
2023/05/23 09:09:08;;;;;;;;;;;15.90;99.90;;;;;;6096177;23;19925;-79
2023/05/23 09:11:33;;;;;;;;;;;15.10;99.90;;;;;;6095915;23;19943;-78
2023/05/23 09:13:59;;;;;;;;;;;15.60;99.90;;;;;;6123381;23;19918;-79
2023/05/23 09:16:31;;;;;;;;;;;15.90;99.90;;;;;;6098439;23;19924;-80
2023/05/23 09:18:56;;;;;;;;;;;16.50;99.90;;;;;;6123911;23;19920;-81
2023/05/23 09:21:23;;;;;;;;;;;16.60;99.90;;;;;;6097145;23;20003;-80
2023/05/23 09:23:49;;;;;;;;;;;16.50;99.90;;;;;;6098199;23;19921;-79
2023/05/23 09:26:14;;;;;;;;;;;16.30;99.90;;;;;;6124357;23;19956;-79
2023/05/23 09:28:41;;;;;;;;;;;16.30;99.90;;;;;;6085982;23;19921;-74
2023/05/23 09:31:11;;;;;;;;;;;16.30;99.90;;;;;;6097934;23;19928;-75
2023/05/23 09:33:48;;;;;;;;;;;15.90;99.90;;;;;;6124424;23;19991;-75
2023/05/23 09:36:17;;;;;;;;;;;15.90;99.90;;;;;;6124210;23;19921;-75
2023/05/23 09:38:44;;;;;;;;;;;16.10;99.90;;;;;;6124477;23;19928;-74
2023/05/23 09:41:11;;;;;;;;;;;16.40;99.90;;;;;;6122816;23;19956;-74
2023/05/23 09:43:37;;;;;;;;;;;16.40;99.90;;;;;;6098233;23;19948;-73
2023/05/23 09:46:06;;;;;;;;;;;15.80;99.90;;;;;;6097908;23;19921;-75
2023/05/23 09:48:32;;;;;;;;;;;16.20;99.90;;;;;;6122029;23;19921;-80
2023/05/23 09:51:22;;;;;;;;;;;16.40;99.90;;;;;;6095415;23;19995;-78
2023/05/23 09:54:07;;;;;;;;;;;16.20;99.90;;;;;;6095362;23;20245;-78
2023/05/23 09:56:33;;;;;;;;;;;17.60;99.90;;;;;;6096329;23;19928;-78
2023/05/23 09:59:00;;;;;;;;;;;16.80;99.90;;;;;;6123865;23;19928;-76
2023/05/23 10:01:26;;;;;;;;;;;17.20;99.50;;;;;;6124200;23;19923;-77
2023/05/23 10:03:56;;;;;;;;;;;17.00;99.90;;;;;;6097551;23;19991;-77
2023/05/23 10:06:28;;;;;;;;;;;17.00;99.90;;;;;;6097193;23;19925;-77
2023/05/23 10:09:00;;;;;;;;;;;16.70;99.90;;;;;;6096548;23;19921;-78
2023/05/23 10:11:29;;;;;;;;;;;16.50;99.90;;;;;;6123249;23;19956;-77
2023/05/23 10:13:55;;;;;;;;;;;16.10;99.90;;;;;;6122825;23;19944;-76
2023/05/23 10:16:30;;;;;;;;;;;15.80;99.90;;;;;;6122442;23;20326;-78
2023/05/23 10:18:58;;;;;;;;;;;15.20;99.90;;;;;;6125576;23;19921;-77
2023/05/23 10:21:26;;;;;;;;;;;15.00;99.90;;;;;;6126001;23;19928;-77
2023/05/23 10:23:54;;;;;;;;;;;15.40;99.90;;;;;;6099295;23;19989;-77
2023/05/23 10:26:20;;;;;;;;;;;15.80;99.90;;;;;;6100325;23;19979;-77
2023/05/23 10:28:48;;;;;;;;;;;15.70;99.90;;;;;;6100699;23;19988;-77
2023/05/23 10:31:14;;;;;;;;;;;15.80;99.90;;;;;;6126520;23;19995;-77
2023/05/23 10:33:42;;;;;;;;;;;15.50;99.90;;;;;;6104402;23;19928;-77
2023/05/23 10:36:13;;;;;;;;;;;15.50;99.90;;;;;;6102188;23;20520;-78
2023/05/23 10:38:42;;;;;;;;;;;15.70;99.90;;;;;;6099331;23;19921;-78
2023/05/23 10:41:22;;;;;;;;;;;15.80;99.90;;;;;;6099141;23;19925;-78
2023/05/23 10:43:54;;;;;;;;;;;16.00;99.90;;;;;;6099427;23;19921;-78
2023/05/23 10:46:22;;;;;;;;;;;16.40;99.90;;;;;;6124721;23;19921;-78
2023/05/23 10:48:52;;;;;;;;;;;16.80;99.90;;;;;;6099517;23;19928;-77
2023/05/23 10:51:19;;;;;;;;;;;16.90;99.30;;;;;;6124938;23;20008;-78
2023/05/23 10:53:45;;;;;;;;;;;17.30;99.60;;;;;;6097355;23;19924;-87
2023/05/23 10:56:22;;;;;;;;;;;17.30;98.60;;;;;;6125181;23;19921;-74
2023/05/23 10:58:54;;;;;;;;;;;16.80;98.80;;;;;;6124694;23;19917;-75
2023/05/23 11:01:20;;;;;;;;;;;16.60;98.90;;;;;;6099416;23;19956;-74
2023/05/23 11:03:46;;;;;;;;;;;16.40;99.20;;;;;;6125271;23;20242;-75
2023/05/23 11:06:37;;;;;;;;;;;16.40;99.30;;;;;;6098249;23;19921;-73
2023/05/23 11:09:09;;;;;;;;;;;16.80;99.60;;;;;;6097924;23;19920;-79
2023/05/23 11:11:47;;;;;;;;;;;17.20;99.00;;;;;;6099380;23;19932;-75
2023/05/23 11:14:13;;;;;;;;;;;17.40;99.20;;;;;;6097938;23;19944;-74
2023/05/23 11:16:39;;;;;;;;;;;17.80;99.00;;;;;;6122861;23;20326;-75
2023/05/23 11:19:17;;;;;;;;;;;18.00;98.40;;;;;;6098705;23;19935;-75
2023/05/23 11:21:43;;;;;;;;;;;17.90;97.60;;;;;;6124476;23;19928;-75
2023/05/23 11:24:09;;;;;;;;;;;17.60;98.40;;;;;;6123984;23;19925;-73
2023/05/23 11:26:34;;;;;;;;;;;17.30;98.30;;;;;;6097576;23;20012;-72
2023/05/23 11:29:02;;;;;;;;;;;17.30;98.70;;;;;;6123884;23;19921;-74
2023/05/23 11:31:28;;;;;;;;;;;17.30;99.50;;;;;;6074173;23;19996;-74
2023/05/23 11:33:54;;;;;;;;;;;17.20;99.60;;;;;;6097313;23;19925;-73
2023/05/23 11:36:20;;;;;;;;;;;17.10;99.20;;;;;;6124270;23;19987;-73
2023/05/23 11:38:46;;;;;;;;;;;17.20;99.40;;;;;;6124561;23;20202;-74
2023/05/23 11:41:11;;;;;;;;;;;17.20;99.50;;;;;;6123235;23;20345;-74
2023/05/23 11:43:47;;;;;;;;;;;17.20;99.40;;;;;;6124945;23;19921;-74
2023/05/23 11:46:13;;;;;;;;;;;17.00;99.40;;;;;;6097978;23;19921;-74
2023/05/23 11:48:43;;;;;;;;;;;17.20;98.20;;;;;;6123645;23;20514;-75
2023/05/23 11:51:08;;;;;;;;;;;17.30;98.50;;;;;;6123606;23;19921;-76
2023/05/23 11:53:34;;;;;;;;;;;17.10;99.00;;;;;;6124246;23;20343;-72
2023/05/23 11:56:01;;;;;;;;;;;16.90;99.00;;;;;;6120048;23;19961;-73
2023/05/23 11:58:31;;;;;;;;;;;17.00;99.00;;;;;;6120811;23;19925;-72
2023/05/23 12:01:02;;;;;;;;;;;17.20;98.70;;;;;;6098217;23;19928;-74
2023/05/23 12:03:27;;;;;;;;;;;17.00;98.80;;;;;;6122466;23;20214;-73
2023/05/23 12:05:56;;;;;;;;;;;17.00;99.00;;;;;;6099041;23;19921;-73
2023/05/23 12:08:23;;;;;;;;;;;17.10;98.70;;;;;;6139171;23;19928;-74
2023/05/23 12:10:55;;;;;;;;;;;17.20;98.40;;;;;;6102626;23;19921;-73
2023/05/23 12:13:25;;;;;;;;;;;17.40;98.70;;;;;;6124998;23;19963;-75
2023/05/23 12:15:58;;;;;;;;;;;17.00;98.80;;;;;;6096891;23;20356;-73
2023/05/23 12:18:26;;;;;;;;;;;17.20;99.10;;;;;;6124011;23;19951;-76
2023/05/23 12:20:52;;;;;;;;;;;16.40;99.20;;;;;;6097954;23;19928;-76
2023/05/23 12:23:21;;;;;;;;;;;16.60;99.50;;;;;;6097018;23;20249;-76
2023/05/23 12:25:51;;;;;;;;;;;16.30;98.80;;;;;;6124073;23;19975;-75
2023/05/23 12:28:16;;;;;;;;;;;16.20;99.40;;;;;;6124683;23;19972;-77
2023/05/23 12:30:42;;;;;;;;;;;16.20;99.90;;;;;;6098440;23;19921;-75
2023/05/23 12:33:08;;;;;;;;;;;16.30;99.90;;;;;;6124162;23;19928;-76
2023/05/23 12:35:36;;;;;;;;;;;16.20;99.50;;;;;;6124735;23;20342;-76
2023/05/23 12:38:05;;;;;;;;;;;16.60;99.20;;;;;;6119608;23;19917;-76
2023/05/23 12:40:31;;;;;;;;;;;16.80;98.40;;;;;;6123895;23;19948;-76
2023/05/23 12:42:59;;;;;;;;;;;17.20;98.10;;;;;;6100404;23;19925;-75
2023/05/23 12:46:00;;;;;;;;;;;17.60;97.80;;;;;;6067071;23;19928;-75
2023/05/23 12:48:28;;;;;;;;;;;17.60;98.20;;;;;;6090762;23;19921;-75
2023/05/23 12:51:16;;;;;;;;;;;17.60;98.00;;;;;;6092185;23;20406;-75
2023/05/23 12:56:36;;;;;;;;;;;17.50;97.00;;;;;;6067983;23;19921;-75
2023/05/23 12:59:26;;;;;;;;;;;17.30;96.50;;;;;;6091896;23;20231;-76
2023/05/23 13:02:01;;;;;;;;;;;16.00;97.80;;;;;;6091704;23;19921;-76
2023/05/23 13:04:27;;;;;;;;;;;16.10;98.20;;;;;;6067046;23;19925;-75
2023/05/23 13:07:01;;;;;;;;;;;16.70;98.50;;;;;;6090874;23;20244;-75
2023/05/23 13:09:27;;;;;;;;;;;15.60;97.80;;;;;;6067293;23;19993;-76
2023/05/23 13:11:53;;;;;;;;;;;16.20;98.00;;;;;;6069007;23;19941;-75
2023/05/23 13:14:21;;;;;;;;;;;16.40;97.40;;;;;;6092353;23;20402;-75
2023/05/23 13:16:47;;;;;;;;;;;16.40;98.50;;;;;;6068001;23;19990;-76
2023/05/23 13:19:12;;;;;;;;;;;16.60;98.00;;;;;;6066251;23;19921;-78
2023/05/23 13:21:38;;;;;;;;;;;16.90;98.40;;;;;;6068981;23;19923;-77
2023/05/23 13:24:04;;;;;;;;;;;17.10;97.80;;;;;;6068740;23;19929;-77
2023/05/23 13:26:29;;;;;;;;;;;17.20;96.70;;;;;;6093605;23;19927;-77
2023/05/23 13:28:55;;;;;;;;;;;17.10;96.60;;;;;;6093992;23;19976;-78
2023/05/23 13:31:20;;;;;;;;;;;16.60;97.30;;;;;;6094373;23;19969;-75
2023/05/23 13:33:46;;;;;;;;;;;16.80;97.80;;;;;;6068000;23;20028;-78
2023/05/23 13:36:12;;;;;;;;;;;16.80;97.90;;;;;;6069490;23;20258;-76
2023/05/23 13:38:37;;;;;;;;;;;16.50;97.90;;;;;;6068749;23;20203;-76
2023/05/23 13:41:03;;;;;;;;;;;16.30;97.30;;;;;;6067484;23;19932;-77
2023/05/23 13:43:28;;;;;;;;;;;16.60;97.20;;;;;;6096583;23;19921;-76
2023/05/23 13:45:54;;;;;;;;;;;17.00;97.30;;;;;;6097166;23;19921;-77
2023/05/23 13:48:19;;;;;;;;;;;17.20;97.10;;;;;;6122349;23;20361;-76
2023/05/23 13:50:45;;;;;;;;;;;17.20;97.30;;;;;;6097680;23;20334;-76
2023/05/23 13:53:32;;;;;;;;;;;17.40;97.10;;;;;;6123923;23;19995;-77
2023/05/23 13:55:58;;;;;;;;;;;16.60;95.70;;;;;;6097748;23;19932;-77
2023/05/23 13:58:26;;;;;;;;;;;17.50;95.20;;;;;;6100437;23;19949;-77
2023/05/23 14:00:52;;;;;;;;;;;17.50;95.50;;;;;;6099795;23;19928;-77
2023/05/23 14:03:18;;;;;;;;;;;17.70;95.50;;;;;;6099713;23;19921;-77
2023/05/23 14:05:44;;;;;;;;;;;17.70;95.40;;;;;;6100288;23;19951;-77
2023/05/23 14:08:10;;;;;;;;;;;17.70;95.20;;;;;;6124918;23;20400;-76
2023/05/23 14:10:36;;;;;;;;;;;17.50;95.40;;;;;;6100519;23;19921;-77
2023/05/23 14:13:01;;;;;;;;;;;17.10;96.30;;;;;;6125231;23;19959;-76
2023/05/23 14:15:37;;;;;;;;;;;17.30;96.40;;;;;;6044105;23;19925;-76
2023/05/23 14:32:11;;;;;;;;;;;16.00;96.90;;;;;;6007846;23;19917;-76
2023/05/23 14:35:10;;;;;;;;;;;16.60;96.40;;;;;;6005826;23;19958;-75
2023/05/23 14:38:24;;;;;;;;;;;16.40;96.30;;;;;;6094359;23;19999;-76
2023/05/23 14:40:53;;;;;;;;;;;16.50;96.40;;;;;;6031738;23;19962;-77
2023/05/23 14:43:28;;;;;;;;;;;16.70;96.60;;;;;;6085883;23;19921;-76
2023/05/23 14:45:57;;;;;;;;;;;15.70;96.20;;;;;;6121108;23;19932;-76
2023/05/23 14:48:23;;;;;;;;;;;16.40;96.80;;;;;;6099328;23;20279;-76
2023/05/23 14:50:48;;;;;;;;;;;16.20;96.20;;;;;;6097967;23;19967;-76
2023/05/23 14:53:14;;;;;;;;;;;16.20;96.70;;;;;;6099178;23;19921;-77
2023/05/23 14:55:40;;;;;;;;;;;16.40;97.00;;;;;;6099898;23;19921;-75